Información del aeropuerto LIEE

Información de pista
Pista 14 Longitud 9196 ft Anchura 148 ft Elevación 9 ft Umbral N/A Rumbo 138
Pista 32 Longitud 9196 ft Anchura 148 ft Elevación 4 ft Umbral N/A Rumbo 318
Frecuencias del aeropuerto
Tipo APP Nombre CAGLIARI A Frecuencia 118.75 MHZ
Tipo GND Nombre Elmas GND Frecuencia 125.425 MHZ
Tipo MISC Nombre SAR Frecuencia 123.1 MHZ
Tipo TWR Nombre TWR Frecuencia 120.6 MHZ
Radioayudas del aeropuerto
Tipo VOR-DME Nombre Cagliari Frecuencia 113400 KHZ
Tipo NDB Nombre Cagliari Frecuencia 371 KHZ
METAR y NOTAM del aeropuerto
ADDS - METARS form results

(2219 UTC 06 February 2023)
Data provider http://aviationweather.gov/metar/data/
 
METAR text: LIEE 062150Z 13010KT 9999 FEW040 BKN060 09/03 Q1026
Conditions at: LIEE (CAGLIARI/ELMAS(A, IT) observed 2150 UTC 06 February 2023
Temperature: 9.0°C (48°F)
Dewpoint: 3.0°C (37°F) [RH = 66%]
Pressure (altimeter): 30.30 inches Hg (1026.0 mb)
Winds: from the SE (130 degrees) at 12 MPH (10 knots; 5.1 m/s)
Visibility: 6 or more miles (10+ km)
Ceiling: 6000 feet AGL
Clouds: few clouds at 4000 feet AGL
broken clouds at 6000 feet AGL
Weather: no significant weather observed at this time

METAR text: LIEE 062120Z 12011KT 9999 FEW035 BKN060 09/03 Q1026
Conditions at: LIEE (CAGLIARI/ELMAS(A, IT) observed 2120 UTC 06 February 2023
Temperature: 9.0°C (48°F)
Dewpoint: 3.0°C (37°F) [RH = 66%]
Pressure (altimeter): 30.30 inches Hg (1026.0 mb)
Winds: from the ESE (120 degrees) at 13 MPH (11 knots; 5.7 m/s)
Visibility: 6 or more miles (10+ km)
Ceiling: 6000 feet AGL
Clouds: few clouds at 3500 feet AGL
broken clouds at 6000 feet AGL
Weather: no significant weather observed at this time

Forecast for: LIEE (CAGLIARI/ELMAS(A, IT)
Text: TAF LIEE 061700Z 0618/0718 13012KT 9999 SCT030
Forecast period: 1800 UTC 06 February 2023 to 0700 UTC 07 February 2023
Forecast type: FROM: standard forecast or significant change
Winds: from the SE (130 degrees) at 14 MPH (12 knots; 6.2 m/s)
Visibility: 6 or more miles (10+ km)
Ceiling: at least 12,000 feet AGL
Clouds: scattered clouds at 3000 feet AGL
Weather: no significant weather forecast for this period
Text: TEMPO 0618/0622 RA
Forecast period: 1800 to 2200 UTC 06 February 2023
Forecast type: TEMPORARY: The following changes expected for less than half the time period
Visibility: missing
Ceiling: unknown
Clouds: missing
Weather: RA  (moderate rain)
Text: BECMG 0707/0709 12016G28KT
Forecast period: 0700 to 1800 UTC 07 February 2023
Forecast type: BECOMING: Conditions expected to become as follows by 0900 UTC 07 February 2023
Winds: from the ESE (120 degrees) at 18 MPH (16 knots; 8.2 m/s)
gusting to 32 MPH (28 knots; 14.4 m/s)
Visibility: 6 or more miles (10+ km)
Ceiling: at least 12,000 feet AGL
Clouds: scattered clouds at 3000 feet AGL
Weather: no significant weather forecast for this period